Andrus Island, California
Current Conditions -  °F | °C
As of 12:58 PM on Thursday 18 Dec 2014 (Local Time) from KSUU Reporting Station
Overcast Overcast  
Wind Chill: 12°   Ceiling: 1100
Heat Index: 12°   Visibility: 10mi
Dew Point:   Wind: 3mph
Humidity: 80%   Direction: 60°ENE
Pressure: 30.15"   Gusts: NA
Location:  38.1457°N, 121.624°W
Report Text: KSUU 182058Z 06003KT 10SM OVC011 12/09 A3015 RMK AO2A SLP217 T01210088 58008 $
Loading
Personal Weather Stations






























Interactive Weather Map New forecast layout! Learn more

10-Day Weather Forecast

Advertisements
Track Severe Weather on mobile